Seznam meteostanic stanic Slunecno.cz
Reklama
Líbí se Vám tento web? Budeme velmi rádi, pokud přidáte hodnocení +1

Seznam meteostanic a jejich METAR

Vyhledat místa podle abecedy:
A B C D E F G H I J K L M N O P Q R S T U V W X Y Z

Filtrovat:

ID stanice:
a/nebo
Název místa (fulltext):
 
Místo (ID)Naposledy načteno 
Brno - Tuřany (Brno/Tu) 20.05.2018 21:00 UTC Zobrazit data
Místo: Brno - Tuřany
Teplota: 16 °C (pocitová: 13.5 °C)
Vítr: 4 m/s z(e) 50°
Počasí: skorojasno
Dohlednost: 35 km
Zákl. oblačnosti: 1/8 6900 m
Vlhkost: 55%
Červená - Opava (Cervena/uL) 20.05.2018 21:00 UTC Zobrazit data
Místo: Červená - Opava
Teplota: 10 °C (pocitová: 4.4 °C)
Vítr: 6 m/s z(e) 40°
Počasí:
Dohlednost: 35 km
Zákl. oblačnosti: N/A
Vlhkost: 71%
České Budějovice (C.Budej/po) 20.05.2018 21:00 UTC Zobrazit data
Místo: České Budějovice
Teplota: 13 °C (pocitová: 11.7 °C)
Vítr: 1 m/s z(e) 180°
Počasí: skorojasno
Dohlednost: 29 km
Zákl. oblačnosti: 1/8 7200 m
Vlhkost: 67%
Cheb (Cheb) 20.05.2018 21:00 UTC Zobrazit data
Místo: Cheb
Teplota: 12 °C (pocitová: 9.5 °C)
Vítr: 2 m/s z(e) 70°
Počasí:
Dohlednost: 35 km
Zákl. oblačnosti: N/A
Vlhkost: 58%
Chotusice - Čáslav (Caslav) 20.05.2018 21:00 UTC Zobrazit data
Místo: Chotusice - Čáslav
Teplota: 15 °C (pocitová: 12.7 °C)
Vítr: 3 m/s z(e) 60°
Počasí: skorojasno
Dohlednost: 20 km
Zákl. oblačnosti: 2/8 2100 m
Vlhkost: 63%
Churáňov (Churanov) 20.05.2018 21:00 UTC Zobrazit data
Místo: Churáňov
Teplota: 10 °C (pocitová: 6 °C)
Vítr: 3 m/s z(e) 130°
Počasí:
Dohlednost: 20 km
Zákl. oblačnosti: N/A
Vlhkost: 62%
Doksany - Litoměřice (Doksany) 20.05.2018 21:00 UTC Zobrazit data
Místo: Doksany - Litoměřice
Teplota: 13 °C (pocitová: 10.8 °C)
Vítr: 2 m/s z(e) 70°
Počasí:
Dohlednost: 35 km
Zákl. oblačnosti: N/A
Vlhkost: 72%
Dukovany (Dukovany) 20.05.2018 21:00 UTC Zobrazit data
Místo: Dukovany
Teplota: 13 °C (pocitová: 8.7 °C)
Vítr: 6 m/s z(e) 10°
Počasí:
Dohlednost: 20 km
Zákl. oblačnosti: N/A
Vlhkost: 72%
Holešov (Holesov) 20.05.2018 21:00 UTC Zobrazit data
Místo: Holešov
Teplota: 13 °C (pocitová: 10.8 °C)
Vítr: 2 m/s z(e) 220°
Počasí:
Dohlednost: 35 km
Zákl. oblačnosti: N/A
Vlhkost: 67%
Kadaň - Tušimice (Tusimice) 20.05.2018 21:00 UTC Zobrazit data
Místo: Kadaň - Tušimice
Teplota: 14 °C (pocitová: 11.3 °C)
Vítr: 3 m/s z(e) 70°
Počasí:
Dohlednost: 35 km
Zákl. oblačnosti: N/A
Vlhkost: 63%
Karlovy Vary (K.Vary) 20.05.2018 21:00 UTC Zobrazit data
Místo: Karlovy Vary
Teplota: 14 °C (pocitová: 9.8 °C)
Vítr: 7 m/s z(e) 90°
Počasí: slunečno
Dohlednost: 50 km
Zákl. oblačnosti: N/A
Vlhkost: 63%
Kocelovice (Kocelovice) 20.05.2018 21:00 UTC Zobrazit data
Místo: Kocelovice
Teplota: 14 °C (pocitová: 10.4 °C)
Vítr: 5 m/s z(e) 70°
Počasí:
Dohlednost: 20 km
Zákl. oblačnosti: N/A
Vlhkost: 67%
Kopisty (Kopisty) 20.05.2018 21:00 UTC Zobrazit data
Místo: Kopisty
Teplota: 15 °C (pocitová: 14.1 °C)
Vítr: 1 m/s z(e) 50°
Počasí: skorojasno
Dohlednost: 20 km
Zákl. oblačnosti: 1/8 2400 m
Vlhkost: 63%
Kostelní Myslová (K.Myslova) 20.05.2018 21:00 UTC Zobrazit data
Místo: Kostelní Myslová
Teplota: 13 °C (pocitová: 9 °C)
Vítr: 5 m/s z(e) 70°
Počasí:
Dohlednost: 20 km
Zákl. oblačnosti: N/A
Vlhkost: 72%
Křešín - Kramolín (Kramolin) 20.05.2018 21:00 UTC Zobrazit data
Místo: Křešín - Kramolín
Teplota: 13 °C (pocitová: 10.8 °C)
Vítr: 2 m/s z(e) 80°
Počasí:
Dohlednost: 20 km
Zákl. oblačnosti: N/A
Vlhkost: 72%
Kuchařovice - Znojmo (Kucharovic) 20.05.2018 21:00 UTC Zobrazit data
Místo: Kuchařovice - Znojmo
Teplota: 15 °C (pocitová: 12.7 °C)
Vítr: 3 m/s z(e) 50°
Počasí:
Dohlednost: 20 km
Zákl. oblačnosti: N/A
Vlhkost: 59%
Liberec (Liberec) 20.05.2018 21:00 UTC Zobrazit data
Místo: Liberec
Teplota: 13 °C (pocitová: 10.8 °C)
Vítr: 2 m/s z(e) 150°
Počasí:
Dohlednost: 35 km
Zákl. oblačnosti: N/A
Vlhkost: 63%
Luká (Luka) 20.05.2018 21:00 UTC Zobrazit data
Místo: Luká
Teplota: 12 °C (pocitová: 8.7 °C)
Vítr: 3 m/s z(e) 40°
Počasí:
Dohlednost: 20 km
Zákl. oblačnosti: N/A
Vlhkost: 67%
Lysá Hora (Lysa Hora) 20.05.2018 21:00 UTC Zobrazit data
Místo: Lysá Hora
Teplota: 8 °C (pocitová: 0.8 °C)
Vítr: 8 m/s z(e) 80°
Počasí:
Dohlednost: 35 km
Zákl. oblačnosti: N/A
Vlhkost: 62%
Milešovka (Milesovka) 20.05.2018 21:00 UTC Zobrazit data
Místo: Milešovka
Teplota: 11 °C (pocitová: 5.1 °C)
Vítr: 8 m/s z(e) 100°
Počasí: skorojasno
Dohlednost: 50 km
Zákl. oblačnosti: 1/8 780 m
Vlhkost: 77%
Mošnov (Ostrava/Mo) 20.05.2018 21:00 UTC Zobrazit data
Místo: Mošnov
Teplota: 13 °C (pocitová: 11.7 °C)
Vítr: 1 m/s z(e) 70°
Počasí: slunečno
Dohlednost: 30 km
Zákl. oblačnosti: N/A
Vlhkost: 63%
Náměšť nad Oslavou (Namest n/O) 20.05.2018 21:00 UTC Zobrazit data
Místo: Náměšť nad Oslavou
Teplota: 14 °C (pocitová: 11.3 °C)
Vítr: 3 m/s z(e) 50°
Počasí: slunečno
Dohlednost: 30 km
Zákl. oblačnosti: N/A
Vlhkost: 63%
Pardubice (Pardubice) 20.05.2018 21:00 UTC Zobrazit data
Místo: Pardubice
Teplota: 14 °C (pocitová: 12.1 °C)
Vítr: 2 m/s z(e) 90°
Počasí: oblačno
Dohlednost: 20 km
Zákl. oblačnosti: 3/8 2100 m
Vlhkost: 67%
Pec pod Sněžkou (Pec p.Snez) 20.05.2018 21:00 UTC Zobrazit data
Místo: Pec pod Sněžkou
Teplota: 8 °C (pocitová: 5.5 °C)
Vítr: 1 m/s z(e) 0°
Počasí:
Dohlednost: 20 km
Zákl. oblačnosti: N/A
Vlhkost: 87%
Plzeň město - Mikulka (Plzen/Miku) 20.05.2018 21:00 UTC Zobrazit data
Místo: Plzeň město - Mikulka
Teplota: 14 °C (pocitová: 11.3 °C)
Vítr: 3 m/s z(e) 40°
Počasí:
Dohlednost: 35 km
Zákl. oblačnosti: N/A
Vlhkost: 67%
Polom (Polom) 20.05.2018 21:00 UTC Zobrazit data
Místo: Polom
Teplota: 11 °C (pocitová: 6.7 °C)
Vítr: 4 m/s z(e) 60°
Počasí: slunečno
Dohlednost: 20 km
Zákl. oblačnosti: N/A
Vlhkost: 67%
Praha - Karlov (Praha/Kar) 20.05.2018 21:00 UTC Zobrazit data
Místo: Praha - Karlov
Teplota: 17 °C (pocitová: 14.9 °C)
Vítr: 4 m/s z(e) 100°
Počasí:
Dohlednost: 35 km
Zákl. oblačnosti: N/A
Vlhkost: 52%
Praha - Kbely (Praha/Kbe) 20.05.2018 21:00 UTC Zobrazit data
Místo: Praha - Kbely
Teplota: 15 °C (pocitová: 11.8 °C)
Vítr: 5 m/s z(e) 80°
Počasí: slunečno
Dohlednost: 20 km
Zákl. oblačnosti: N/A
Vlhkost: 63%
Praha - Libuš (Praha/Lib) 20.05.2018 21:00 UTC Zobrazit data
Místo: Praha - Libuš
Teplota: 16 °C (pocitová: 13.5 °C)
Vítr: 4 m/s z(e) 80°
Počasí:
Dohlednost: 35 km
Zákl. oblačnosti: N/A
Vlhkost: 59%
Praha - Ruzyně (Praha/Ru) 20.05.2018 21:00 UTC Zobrazit data
Místo: Praha - Ruzyně
Teplota: 15 °C (pocitová: 11.2 °C)
Vítr: 7 m/s z(e) 90°
Počasí: slunečno
Dohlednost: 50 km
Zákl. oblačnosti: N/A
Vlhkost: 59%
Přibyslav (Pribyslav) 20.05.2018 21:00 UTC Zobrazit data
Místo: Přibyslav
Teplota: 13 °C (pocitová: 10 °C)
Vítr: 3 m/s z(e) 70°
Počasí:
Dohlednost: 20 km
Zákl. oblačnosti: N/A
Vlhkost: 67%
Přimda (Primda) 20.05.2018 21:00 UTC Zobrazit data
Místo: Přimda
Teplota: 12 °C (pocitová: 7.3 °C)
Vítr: 6 m/s z(e) 90°
Počasí: skorojasno
Dohlednost: 35 km
Zákl. oblačnosti: 1/8 1500 m
Vlhkost: 63%
Šerák (Serak) 20.05.2018 21:00 UTC Zobrazit data
Místo: Šerák
Teplota: 6 °C (pocitová: -2.6 °C)
Vítr: 10 m/s z(e) 100°
Počasí:
Dohlednost: 35 km
Zákl. oblačnosti: N/A
Vlhkost: 81%
Svratouch (Svratouch) 20.05.2018 21:00 UTC Zobrazit data
Místo: Svratouch
Teplota: 12 °C (pocitová: 7.3 °C)
Vítr: 6 m/s z(e) 90°
Počasí:
Dohlednost: 35 km
Zákl. oblačnosti: N/A
Vlhkost: 67%
Temelín (Temelin) 20.05.2018 21:00 UTC Zobrazit data
Místo: Temelín
Teplota: 12 °C (pocitová: 8.7 °C)
Vítr: 3 m/s z(e) 70°
Počasí: skorojasno
Dohlednost: 35 km
Zákl. oblačnosti: 2/8 1500 m
Vlhkost: 67%
Ústí nad Labem - Kočkov (Usti n/L) 20.05.2018 21:00 UTC Zobrazit data
Místo: Ústí nad Labem - Kočkov
Teplota: 15 °C (pocitová: 12.2 °C)
Vítr: 4 m/s z(e) 80°
Počasí:
Dohlednost: 35 km
Zákl. oblačnosti: N/A
Vlhkost: 59%
Ústí nad Orlicí (Usti n/O) 20.05.2018 21:00 UTC Zobrazit data
Místo: Ústí nad Orlicí
Teplota: 13 °C (pocitová: 9.4 °C)
Vítr: 4 m/s z(e) 60°
Počasí:
Dohlednost: 35 km
Zákl. oblačnosti: N/A
Vlhkost: 67%
Aalborg (EKYT) 18.05.2018 10:53 UTC Zobrazit METAR
EKYT 181053Z 06012KT 9999 FEW025 SCT065 19/07 Q1020
Aarhus (EKAH) 20.05.2018 16:50 UTC Zobrazit METAR
EKAH 201650Z 12005KT 090V150 9999 NSC 21/06 Q1027
Abu Dhabi (OMAA) 20.05.2018 21:00 UTC Zobrazit METAR
OMAA 202100Z 00000KT CAVOK 28/23 Q1007 NOSIG
Abuja (DNAA) 20.05.2018 18:00 UTC Zobrazit METAR
DNAA 201800Z 22006KT CAVOK 29/22 Q1010 NOSIG
Accra (DGAA) 20.05.2018 21:00 UTC Zobrazit METAR
DGAA 202100Z 21013KT 9999 SCT012 28/25 Q1012 NOSIG
Addis Abeba (HAAB) 26.04.2018 19:00 UTC Zobrazit METAR
HAAB 261900Z 00000KT 9999 BKN025 SCT070 16/14 Q1025
Agana (PGUM) 20.05.2018 20:54 UTC Zobrazit METAR
PGUM 202054Z 06005KT 10SM CLR 28/27 A2986 RMK AO2 SLP102 T02830267 53012
Ahe Island (NTHE) Zatím nenačteno  
Akureyri (BIAR) 20.05.2018 21:00 UTC Zobrazit METAR
BIAR 202100Z 19019KT 9999 -RA FEW021 BKN032 BKN050 06/03 Q0994
Almaty (UAAA) Zatím nenačteno  
Amman (OJAM) 20.05.2018 21:00 UTC Zobrazit METAR
OJAM 202100Z 00000KT 6000 NSC 25/07 Q1014 NOSIG
Amsterdam (EHAM) 20.05.2018 20:55 UTC Zobrazit METAR
EHAM 202055Z 03005KT CAVOK 16/12 Q1020 NOSIG
Antananarivo (FMMI) 20.05.2018 21:00 UTC Zobrazit METAR
FMMI 202100Z 14006KT 110V170 9999 FEW017 14/12 Q1023 NOSIG
1 2 3 ... 9 Další
Reklama

Počasí na Váš email

Emaily jsou bez reklamy a bez spamu



Odhlásit newsletter

Reklama


Lunární kalendář

  • 22.05.
  • 29.05.
  • 06.06.
  • 13.06.



Slunečno.cz na Google+

Reklama


Reklama
Povinné ručení
Reklama




Reklama